Time;durP1;ratioP1;P1;durP2;ratioP2;P2;SDS_P1;SDS_P2;PMS_P1;PMS_P2;Temp;Humidity;BMP_temperature;BMP_pressure;BME280_temperature;BME280_humidity;BME280_pressure;Samples;Min_cycle;Max_cycle;Signal;HPM_P1;HPM_P2
2021/07/25 00:01:50;;;;;;;8.23;5.00;;;;;;;28.66;44.49;100946.81;127920;1090;64102;-85
2021/07/25 00:04:26;;;;;;;6.87;4.20;;;;;;;28.66;44.49;100945.97;127973;1086;64285;-84
2021/07/25 00:06:54;;;;;;;6.47;4.50;;;;;;;28.65;44.77;100941.53;128002;1087;64279;-86
2021/07/25 00:09:22;;;;;;;;;;;;;;;28.65;44.17;100946.97;128057;1087;64167;-86
2021/07/25 00:12:03;;;;;;;5.53;4.03;;;;;;;28.64;44.32;100950.66;128356;1087;64174;-85
2021/07/25 00:14:49;;;;;;;;;;;;;;;;;;;;;
2021/07/25 00:17:21;;;;;;;6.55;4.25;;;;;;;28.63;44.31;100944.38;128385;1086;64222;-85
2021/07/25 00:19:59;;;;;;;6.00;4.33;;;;;;;28.63;44.63;100954.38;128000;1087;64096;-85
2021/07/25 00:22:34;;;;;;;;;;;;;;;28.63;44.55;100952.53;128392;1086;64102;-85
2021/07/25 00:25:18;;;;;;;5.80;4.50;;;;;;;28.62;44.26;100949.98;128386;1087;64150;-85
2021/07/25 00:27:56;;;;;;;7.37;4.63;;;;;;;28.62;44.73;100949.98;128390;1087;64722;-85
2021/07/25 00:30:31;;;;;;;7.53;4.90;;;;;;;28.62;44.44;100947.27;128372;1087;64203;-85
2021/07/25 00:33:00;;;;;;;6.97;4.53;;;;;;;28.61;44.51;100946.39;127991;1085;64140;-85
2021/07/25 00:35:46;;;;;;;6.93;4.77;;;;;;;28.62;44.54;100948.10;128391;1084;64134;-85
2021/07/25 00:38:13;;;;;;;6.00;4.40;;;;;;;28.62;44.43;100958.13;128528;1082;64098;-85
2021/07/25 00:41:08;;;;;;;;;;;;;;;;;;;;;
2021/07/25 00:43:35;;;;;;;6.90;4.57;;;;;;;28.62;44.81;100958.13;128454;1084;64131;-84
2021/07/25 00:46:04;;;;;;;5.53;4.10;;;;;;;28.62;44.66;100961.69;128452;1084;64246;-84
2021/07/25 00:48:56;;;;;;;5.93;4.33;;;;;;;28.62;44.66;100961.69;128547;1084;64243;-85
2021/07/25 00:51:23;;;;;;;6.00;4.30;;;;;;;28.62;44.23;100952.69;128922;1084;64130;-85
2021/07/25 00:53:51;;;;;;;6.57;4.20;;;;;;;28.62;44.73;100949.98;128431;1084;64224;-86
2021/07/25 00:56:26;;;;;;;6.50;4.20;;;;;;;28.62;44.37;100947.27;128412;1083;64300;-84
2021/07/25 00:58:56;;;;;;;6.80;4.40;;;;;;;28.62;44.62;100945.39;128518;1082;64374;-85
2021/07/25 01:01:25;;;;;;;5.73;4.07;;;;;;;28.61;44.51;100943.67;128476;1084;64137;-85
2021/07/25 01:04:09;;;;;;;6.17;4.40;;;;;;;28.62;44.37;100948.10;128464;1082;64097;-85
2021/07/25 01:06:58;;;;;;;6.57;5.00;;;;;;;28.62;44.52;100945.39;128905;1084;64127;-86
2021/07/25 01:09:55;;;;;;;6.63;4.67;;;;;;;28.61;44.74;100957.25;128952;1084;64144;-84
2021/07/25 01:12:29;;;;;;;8.43;4.67;;;;;;;28.61;44.77;100949.11;128478;1084;64134;-85
2021/07/25 01:14:56;;;;;;;7.93;4.80;;;;;;;28.60;44.62;100950.14;128471;1084;64178;-85
2021/07/25 01:17:35;;;;;;;6.33;4.40;;;;;;;28.60;44.58;100948.27;128931;1084;64156;-85
2021/07/25 01:20:11;;;;;;;7.13;4.30;;;;;;;28.59;44.44;100946.55;128888;1084;64096;-84
2021/07/25 01:22:39;;;;;;;6.30;4.40;;;;;;;28.60;44.53;100953.70;128903;1084;64095;-84
2021/07/25 01:25:14;;;;;;;6.33;4.58;;;;;;;28.60;44.37;100959.13;128486;1084;64176;-84
2021/07/25 01:28:39;;;;;;;6.70;4.50;;;;;;;28.59;44.47;100957.41;128510;1084;64125;-85
2021/07/25 01:31:13;;;;;;;6.53;4.47;;;;;;;28.60;44.87;100963.72;128384;1087;64148;-84
2021/07/25 01:33:49;;;;;;;;;;;;;;;;;;;;;
2021/07/25 01:36:16;;;;;;;8.47;4.40;;;;;;;28.59;44.44;100962.00;128058;1085;64139;-85
2021/07/25 01:38:43;;;;;;;6.90;4.60;;;;;;;28.58;44.54;100966.56;128006;1087;63990;-85
2021/07/25 01:41:17;;;;;;;7.53;4.50;;;;;;;28.60;44.39;100969.15;128408;1086;63035;-85
2021/07/25 01:43:48;;;;;;;5.87;4.63;;;;;;;28.59;44.84;100968.27;128355;1087;64160;-85
2021/07/25 01:46:16;;;;;;;7.40;4.50;;;;;;;28.58;44.52;100961.13;127967;1087;64134;-84
2021/07/25 01:48:43;;;;;;;7.30;4.53;;;;;;;28.58;44.57;100963.00;128387;1085;64470;-84
2021/07/25 01:51:15;;;;;;;6.83;4.63;;;;;;;28.58;44.48;100969.28;128019;1086;64131;-84
2021/07/25 01:53:56;;;;;;;6.73;4.27;;;;;;;28.59;44.70;100964.72;128364;1087;64131;-85
2021/07/25 01:56:22;;;;;;;6.07;4.67;;;;;;;28.57;44.35;100973.03;128354;1086;64250;-84
2021/07/25 01:59:03;;;;;;;6.37;4.90;;;;;;;28.57;44.37;100973.03;128349;1087;64393;-85
2021/07/25 02:01:33;;;;;;;6.17;4.30;;;;;;;28.58;44.67;100982.02;128383;1087;64137;-85
2021/07/25 02:04:02;;;;;;;6.37;4.57;;;;;;;28.58;44.24;100973.87;128337;1086;63935;-85
2021/07/25 02:06:35;;;;;;;6.80;4.37;;;;;;;28.58;44.39;100971.16;128011;1087;64142;-85
2021/07/25 02:09:19;;;;;;;6.43;4.27;;;;;;;28.57;44.29;100975.74;128682;1084;64147;-84
2021/07/25 02:11:45;;;;;;;6.33;4.27;;;;;;;28.57;44.47;100975.74;128478;1082;64307;-84
2021/07/25 02:14:12;;;;;;;5.73;4.27;;;;;;;28.57;44.39;100974.88;128491;1084;64254;-85
2021/07/25 02:16:42;;;;;;;6.23;4.50;;;;;;;28.56;44.31;100979.45;128907;1084;64139;-85
2021/07/25 02:19:25;;;;;;;;;;;;;;;;;;;;;
2021/07/25 02:21:54;;;;;;;7.23;4.43;;;;;;;28.56;44.75;100979.45;128927;1083;64125;-85
2021/07/25 02:24:23;;;;;;;6.13;4.40;;;;;;;28.56;44.79;100974.03;128506;1084;64226;-85
2021/07/25 02:26:53;;;;;;;6.53;4.57;;;;;;;28.55;44.84;100975.03;128492;1084;64147;-85
2021/07/25 02:29:19;;;;;;;6.90;4.60;;;;;;;28.57;44.45;100985.73;128538;1081;64266;-84
2021/07/25 02:31:45;;;;;;;6.03;4.30;;;;;;;28.57;44.64;100983.02;128595;1084;64147;-85
2021/07/25 02:34:22;;;;;;;6.40;4.20;;;;;;;28.55;44.80;100979.62;128559;1082;64198;-84
2021/07/25 02:36:48;;;;;;;6.13;4.30;;;;;;;28.56;44.63;100984.02;129285;1084;64155;-84
2021/07/25 02:39:38;;;;;;;7.07;4.77;;;;;;;28.56;44.59;100984.89;128916;1084;64102;-84
2021/07/25 02:42:05;;;;;;;6.27;4.30;;;;;;;28.57;44.89;100985.73;128375;1087;64301;-85
2021/07/25 02:44:44;;;;;;;5.70;4.40;;;;;;;28.57;44.59;100986.61;128372;1087;64215;-85
2021/07/25 02:47:21;;;;;;;6.03;4.30;;;;;;;28.57;44.53;100989.32;127988;1087;64192;-86
2021/07/25 02:49:50;;;;;;;5.73;4.03;;;;;;;28.57;44.89;100988.45;128004;1087;64275;-85
2021/07/25 02:52:16;;;;;;;5.80;4.20;;;;;;;28.57;44.60;100991.16;128044;1087;64160;-85
2021/07/25 02:54:51;;;;;;;5.47;4.03;;;;;;;28.57;44.64;100991.16;127990;1087;64214;-85
2021/07/25 02:57:17;;;;;;;6.40;4.33;;;;;;;28.55;44.65;100988.61;128367;1087;64161;-85
2021/07/25 02:59:47;;;;;;;7.37;4.50;;;;;;;28.56;44.53;100997.59;128392;1087;64150;-85
2021/07/25 03:02:15;;;;;;;5.80;4.53;;;;;;;28.56;44.78;100989.45;128369;1087;64120;-85
2021/07/25 03:04:42;;;;;;;6.60;4.60;;;;;;;28.55;44.56;100991.32;127978;1086;64134;-85
2021/07/25 03:07:34;;;;;;;6.00;4.50;;;;;;;28.55;44.73;100990.48;128011;1085;65864;-85
2021/07/25 03:10:10;;;;;;;6.13;4.30;;;;;;;28.55;44.88;100990.48;127881;1089;64102;-85
2021/07/25 03:12:43;;;;;;;6.00;4.40;;;;;;;28.54;44.56;100986.89;127934;1090;64262;-85
2021/07/25 03:15:11;;;;;;;6.00;4.40;;;;;;;28.55;44.92;101001.34;127908;1090;64144;-85
2021/07/25 03:17:38;;;;;;;6.43;4.63;;;;;;;28.54;44.35;100992.33;127913;1090;64134;-84
2021/07/25 03:20:12;;;;;;;6.93;4.17;;;;;;;28.54;44.63;101003.19;128029;1087;64114;-85
2021/07/25 03:22:41;;;;;;;6.47;4.10;;;;;;;28.53;44.77;101001.50;128028;1087;64134;-85
2021/07/25 03:25:14;;;;;;;6.27;4.40;;;;;;;28.54;44.69;101008.62;127995;1087;64165;-85
2021/07/25 03:27:49;;;;;;;5.90;4.30;;;;;;;28.54;44.82;100999.63;127994;1087;64266;-85
2021/07/25 03:30:15;;;;;;;6.10;4.30;;;;;;;28.54;44.48;101008.62;128374;1087;64175;-84
2021/07/25 03:32:42;;;;;;;6.53;4.50;;;;;;;28.53;44.44;101009.65;128022;1087;64125;-85
2021/07/25 03:35:18;;;;;;;6.70;4.33;;;;;;;28.54;44.69;101010.49;128004;1087;65823;-85
2021/07/25 03:37:53;;;;;;;6.90;4.27;;;;;;;28.53;44.97;101011.49;127979;1087;64590;-85
2021/07/25 03:40:29;;;;;;;7.27;3.97;;;;;;;28.53;44.90;101017.80;128012;1086;64275;-85
2021/07/25 03:43:10;;;;;;;5.83;4.20;;;;;;;28.53;44.86;101016.92;128355;1087;64235;-85
2021/07/25 03:45:38;;;;;;;5.60;4.23;;;;;;;28.53;44.85;101020.52;128029;1087;64288;-85
2021/07/25 03:48:07;;;;;;;7.47;4.47;;;;;;;28.53;44.57;101017.80;128334;1084;64278;-85
2021/07/25 03:50:40;;;;;;;5.50;4.40;;;;;;;28.54;44.75;101022.20;128463;1083;64131;-84
2021/07/25 03:53:16;;;;;;;7.23;4.60;;;;;;;28.54;44.75;101021.36;128564;1082;64019;-84
2021/07/25 03:56:08;;;;;;;7.63;4.27;;;;;;;28.54;44.50;101021.36;128455;1084;64110;-85
2021/07/25 03:58:47;;;;;;;5.90;4.40;;;;;;;28.53;44.70;101023.23;128351;1086;64150;-85
2021/07/25 04:01:36;;;;;;;5.53;4.15;;;;;;;28.53;44.66;101027.78;128383;1086;64140;-85
2021/07/25 04:04:13;;;;;;;5.77;4.30;;;;;;;28.53;44.64;101027.78;128389;1085;64131;-84
2021/07/25 04:06:48;;;;;;;5.53;3.93;;;;;;;28.54;44.74;101034.94;128392;1087;64342;-86
2021/07/25 04:09:23;;;;;;;5.83;3.93;;;;;;;28.53;44.55;101025.07;128348;1087;64594;-83
2021/07/25 04:12:06;;;;;;;5.73;3.97;;;;;;;28.54;44.75;101033.06;128028;1086;64185;-84
2021/07/25 04:14:33;;;;;;;7.27;4.10;;;;;;;28.54;44.46;101034.94;128354;1086;64384;-84
2021/07/25 04:17:05;;;;;;;6.33;4.33;;;;;;;28.54;44.79;101030.34;128375;1087;64156;-84
2021/07/25 04:19:33;;;;;;;6.17;4.23;;;;;;;28.55;44.53;101036.65;128375;1087;64330;-84
2021/07/25 04:22:04;;;;;;;5.60;4.13;;;;;;;28.55;44.41;101037.49;128370;1087;63961;-84
2021/07/25 04:24:34;;;;;;;6.47;4.53;;;;;;;28.56;44.44;101046.48;128007;1085;64137;-86
2021/07/25 04:27:03;;;;;;;5.90;4.50;;;;;;;28.56;44.79;101035.62;127979;1087;62902;-86
2021/07/25 04:29:29;;;;;;;6.27;4.10;;;;;;;28.55;44.46;101042.92;127983;1086;64333;-85
2021/07/25 04:32:02;;;;;;;7.00;4.40;;;;;;;28.56;44.83;101044.64;128002;1087;64340;-85
2021/07/25 04:34:28;;;;;;;7.40;4.40;;;;;;;28.56;44.59;101033.77;127935;1086;63989;-85
2021/07/25 04:37:10;;;;;;;6.53;4.80;;;;;;;28.56;44.59;101039.20;128259;1084;64235;-85
2021/07/25 04:39:42;;;;;;;6.03;4.33;;;;;;;28.57;44.40;101034.62;128368;1084;64250;-85
2021/07/25 04:42:27;;;;;;;;;;;;;;;;;;;;;
2021/07/25 04:45:05;;;;;;;6.60;4.50;;;;;;;28.57;44.27;101035.48;128374;1084;64096;-84
2021/07/25 04:47:48;;;;;;;6.53;4.10;;;;;;;28.58;44.55;101037.17;128369;1087;64144;-85
2021/07/25 04:50:19;;;;;;;5.97;4.23;;;;;;;28.58;44.43;101034.45;128345;1084;64190;-84
2021/07/25 04:52:53;;;;;;;5.50;4.27;;;;;;;28.59;44.59;101032.61;128363;1084;64062;-86
2021/07/25 04:55:36;;;;;;;5.83;4.33;;;;;;;28.60;44.49;101037.89;128371;1084;64273;-85
2021/07/25 04:58:05;;;;;;;6.20;4.33;;;;;;;28.62;44.54;101039.60;128352;1084;64285;-85
2021/07/25 05:00:37;;;;;;;;;;;;;;;28.61;44.54;101041.45;128420;1084;64128;-84
2021/07/25 05:03:05;;;;;;;5.30;4.00;;;;;;;28.62;44.47;101047.75;128349;1084;64134;-85
2021/07/25 05:05:41;;;;;;;5.80;3.70;;;;;;;28.62;44.54;101047.75;128402;1087;64136;-85
2021/07/25 05:08:16;;;;;;;4.90;4.00;;;;;;;28.63;44.51;101042.16;128375;1084;64074;-85
2021/07/25 05:10:48;;;;;;;6.30;3.93;;;;;;;28.65;45.02;101047.47;128360;1087;64179;-85
2021/07/25 05:13:31;;;;;;;5.20;3.90;;;;;;;28.64;45.07;101051.15;128791;1084;64147;-84
2021/07/25 05:16:21;;;;;;;5.37;4.20;;;;;;;28.65;44.67;101059.17;128532;1084;64209;-84
2021/07/25 05:18:56;;;;;;;6.23;4.20;;;;;;;28.67;44.97;101062.60;128928;1084;64136;-85
2021/07/25 05:21:37;;;;;;;6.20;3.90;;;;;;;28.68;44.76;101071.59;128513;1084;64013;-85
2021/07/25 05:24:09;;;;;;;5.37;3.90;;;;;;;28.68;45.03;101068.88;128895;1084;64089;-85
2021/07/25 05:26:36;;;;;;;6.10;4.00;;;;;;;28.69;45.03;101067.88;128523;1084;64272;-85
2021/07/25 05:29:05;;;;;;;5.57;3.70;;;;;;;28.70;45.21;101067.72;128434;1084;64152;-85
2021/07/25 05:31:33;;;;;;;4.97;3.97;;;;;;;28.70;45.15;101069.59;128448;1084;64147;-85
2021/07/25 05:34:09;;;;;;;5.47;4.33;;;;;;;28.71;45.08;101068.59;128510;1084;64130;-85
2021/07/25 05:36:44;;;;;;;6.63;4.43;;;;;;;28.72;45.04;101070.27;128510;1084;64099;-85
2021/07/25 05:39:13;;;;;;;6.17;4.00;;;;;;;28.72;44.98;101076.58;128905;1084;64207;-85
2021/07/25 05:41:40;;;;;;;6.43;4.10;;;;;;;28.73;45.19;101080.14;128507;1084;64163;-85
2021/07/25 05:44:15;;;;;;;6.17;4.00;;;;;;;28.74;44.98;101081.86;128486;1084;64120;-85
2021/07/25 05:46:52;;;;;;;5.00;3.80;;;;;;;28.74;45.23;101090.84;128541;1084;64189;-85
2021/07/25 05:49:27;;;;;;;6.20;4.13;;;;;;;28.75;44.77;101086.29;128513;1084;64099;-85
2021/07/25 05:51:57;;;;;;;5.60;3.87;;;;;;;28.75;45.07;101086.29;128549;1083;64117;-85
2021/07/25 05:54:31;;;;;;;5.43;4.17;;;;;;;28.76;45.02;101088.84;128529;1084;64167;-84
2021/07/25 05:57:01;;;;;;;5.27;3.90;;;;;;;28.77;45.26;101089.69;128534;1082;64124;-85
2021/07/25 05:59:27;;;;;;;8.30;4.00;;;;;;;28.76;44.95;101086.13;128476;1082;64137;-85
2021/07/25 06:02:03;;;;;;;6.40;4.25;;;;;;;28.78;45.16;101094.13;128450;1084;64157;-85
2021/07/25 06:04:30;;;;;;;5.47;4.00;;;;;;;28.79;44.84;101082.25;128536;1082;64169;-84
2021/07/25 06:07:13;;;;;;;5.33;3.93;;;;;;;28.79;45.14;101093.13;128486;1084;64128;-85
2021/07/25 06:09:39;;;;;;;5.33;4.13;;;;;;;28.80;44.99;101083.09;128904;1084;64124;-85
2021/07/25 06:12:13;;;;;;;5.43;3.87;;;;;;;28.81;45.11;101095.68;128517;1084;64134;-85
2021/07/25 06:17:18;;;;;;;5.37;3.80;;;;;;;28.82;45.05;101095.52;128996;1084;64424;-84
2021/07/25 06:19:44;;;;;;;5.27;3.70;;;;;;;28.84;44.74;101096.23;128509;1084;64131;-84
2021/07/25 06:22:13;;;;;;;6.17;3.80;;;;;;;28.85;44.93;101102.52;128873;1084;64104;-83
2021/07/25 06:24:42;;;;;;;6.00;3.90;;;;;;;28.84;44.72;101098.95;128511;1084;64121;-83
2021/07/25 06:27:17;;;;;;;;;;;;;;;28.83;44.79;101102.67;128560;1084;64147;-84
2021/07/25 06:29:52;;;;;;;4.90;3.50;;;;;;;28.83;44.94;101099.95;128896;1084;63942;-84
2021/07/25 06:32:31;;;;;;;5.63;3.80;;;;;;;28.85;44.74;101099.80;128517;1084;64137;-84
2021/07/25 06:35:00;;;;;;;6.10;4.10;;;;;;;28.84;45.03;101100.80;128886;1083;62644;-84
2021/07/25 06:37:32;;;;;;;5.70;4.30;;;;;;;28.85;45.00;101107.95;128519;1082;64840;-84
2021/07/25 06:39:58;;;;;;;5.77;4.10;;;;;;;28.84;44.97;101101.67;128902;1083;64138;-84
2021/07/25 06:42:30;;;;;;;4.67;3.73;;;;;;;28.85;44.72;101102.52;128526;1084;64134;-84
2021/07/25 06:44:56;;;;;;;5.73;3.90;;;;;;;28.85;45.09;101106.06;128560;1084;64135;-84
2021/07/25 06:47:23;;;;;;;5.37;4.03;;;;;;;28.86;44.96;101106.94;129567;1083;64247;-83
2021/07/25 06:49:49;;;;;;;5.90;3.70;;;;;;;28.86;44.91;101102.35;128939;1083;64085;-84
2021/07/25 06:52:15;;;;;;;5.30;3.70;;;;;;;28.87;44.88;101098.63;128887;1084;64083;-84
2021/07/25 06:54:50;;;;;;;5.37;3.40;;;;;;;28.87;44.89;101095.08;128880;1084;64143;-83
2021/07/25 06:57:17;;;;;;;5.50;4.13;;;;;;;28.87;45.06;101090.48;128912;1084;64139;-84
2021/07/25 06:59:46;;;;;;;5.80;3.80;;;;;;;28.87;45.04;101095.91;128505;1083;64249;-83
2021/07/25 07:02:21;;;;;;;5.00;3.93;;;;;;;28.88;44.82;101096.76;128501;1084;64124;-84
2021/07/25 07:04:51;;;;;;;4.83;3.87;;;;;;;28.87;45.16;101090.48;128457;1084;64134;-83
2021/07/25 07:07:20;;;;;;;5.97;3.87;;;;;;;28.87;44.92;101095.91;128569;1082;64163;-85
2021/07/25 07:09:47;;;;;;;5.20;3.80;;;;;;;28.89;45.07;101098.47;128491;1083;64093;-83
2021/07/25 07:12:19;;;;;;;5.30;4.07;;;;;;;28.88;45.12;101094.04;128452;1084;64301;-84
2021/07/25 07:15:07;;;;;;;5.47;3.67;;;;;;;28.87;45.21;101093.20;128901;1083;64345;-83
2021/07/25 07:17:42;;;;;;;5.67;3.70;;;;;;;28.87;44.78;101098.63;128429;1084;64205;-83
2021/07/25 07:20:24;;;;;;;;;;;;;;;;;;;;;
2021/07/25 07:23:11;;;;;;;4.93;3.47;;;;;;;28.88;45.01;101099.48;128369;1084;64154;-85
2021/07/25 07:25:42;;;;;;;5.30;3.57;;;;;;;28.88;44.93;101107.63;128396;1083;64104;-84
2021/07/25 07:28:17;;;;;;;5.83;3.70;;;;;;;28.88;45.08;101108.50;128436;1084;64250;-84
2021/07/25 07:30:57;;;;;;;6.00;3.67;;;;;;;28.88;44.93;101107.63;128388;1084;64336;-83
2021/07/25 07:33:27;;;;;;;6.10;3.90;;;;;;;28.88;44.93;101107.63;128385;1082;64134;-84
2021/07/25 07:35:56;;;;;;;5.40;3.63;;;;;;;28.88;45.13;101107.63;128394;1082;64841;-83
2021/07/25 07:38:31;;;;;;;6.50;3.50;;;;;;;28.88;44.82;101107.63;128410;1084;64153;-84
2021/07/25 07:41:00;;;;;;;5.10;3.90;;;;;;;28.88;45.23;101104.91;128382;1084;64147;-83
2021/07/25 07:43:38;;;;;;;5.20;3.75;;;;;;;28.87;44.94;101114.94;128414;1084;64099;-84
2021/07/25 07:46:06;;;;;;;4.67;3.53;;;;;;;28.88;44.98;101113.06;128452;1084;64287;-84
2021/07/25 07:48:33;;;;;;;5.73;3.70;;;;;;;28.88;45.21;101119.37;128422;1084;64124;-83
2021/07/25 07:51:02;;;;;;;5.50;3.80;;;;;;;28.88;45.33;101124.80;128381;1084;64163;-83
2021/07/25 07:53:36;;;;;;;5.30;3.80;;;;;;;28.88;45.28;101127.52;128391;1084;61877;-84
2021/07/25 07:56:33;;;;;;;;;;;;;;;;;;;;;
2021/07/25 07:59:08;;;;;;;6.33;4.17;;;;;;;28.88;45.01;101137.52;128385;1084;64134;-85
2021/07/25 08:01:39;;;;;;;4.90;3.80;;;;;;;28.89;45.28;101129.20;128400;1084;64138;-85
2021/07/25 08:04:05;;;;;;;4.60;3.47;;;;;;;28.88;45.22;101129.36;128372;1084;64131;-84
2021/07/25 08:06:42;;;;;;;5.37;3.70;;;;;;;28.89;45.08;101125.64;128399;1083;64134;-84
2021/07/25 08:09:32;;;;;;;6.07;3.77;;;;;;;28.88;45.28;101127.52;128453;1084;64093;-84
2021/07/25 08:12:06;;;;;;;5.17;3.90;;;;;;;28.89;45.40;101131.92;128419;1084;63914;-85
2021/07/25 08:14:44;;;;;;;5.67;3.80;;;;;;;28.89;45.62;101129.20;128375;1084;64137;-84
2021/07/25 08:17:17;;;;;;;5.05;3.85;;;;;;;28.89;45.25;101134.64;128423;1084;64240;-85
2021/07/25 08:19:47;;;;;;;5.27;3.60;;;;;;;28.89;45.18;101140.08;128412;1084;64211;-86
2021/07/25 08:22:13;;;;;;;5.37;3.50;;;;;;;28.89;45.15;101137.36;128440;1084;64128;-85
2021/07/25 08:24:48;;;;;;;5.53;4.00;;;;;;;28.89;45.51;101141.95;128397;1084;64339;-85
2021/07/25 08:27:15;;;;;;;4.97;3.70;;;;;;;28.89;45.53;101139.23;128379;1084;64173;-86
2021/07/25 08:29:59;;;;;;;5.20;3.60;;;;;;;28.89;45.40;101150.09;128382;1084;64265;-84
2021/07/25 08:32:36;;;;;;;4.67;3.50;;;;;;;28.89;45.36;101144.66;128395;1084;64128;-85
2021/07/25 08:35:24;;;;;;;;;;;;;;;;;;;;;
2021/07/25 08:37:52;;;;;;;4.93;3.73;;;;;;;28.89;45.31;101141.95;128404;1084;63981;-85
2021/07/25 08:40:23;;;;;;;5.37;3.73;;;;;;;28.89;45.17;101155.53;128417;1084;64400;-85
2021/07/25 08:43:15;;;;;;;5.50;3.60;;;;;;;28.89;45.66;101140.08;128416;1082;63992;-85
2021/07/25 08:45:51;;;;;;;5.13;3.87;;;;;;;28.89;45.28;101140.08;128364;1082;64271;-86
2021/07/25 08:48:19;;;;;;;4.87;3.60;;;;;;;28.90;45.32;101140.95;128388;1084;64203;-85
2021/07/25 08:51:04;;;;;;;6.73;3.73;;;;;;;28.89;45.43;101131.92;128383;1084;64108;-85
2021/07/25 08:53:36;;;;;;;5.20;3.53;;;;;;;28.88;45.46;101143.82;128404;1082;64278;-85
2021/07/25 08:56:06;;;;;;;4.80;3.63;;;;;;;28.89;45.70;101148.22;128422;1082;64130;-85
2021/07/25 08:58:43;;;;;;;5.50;3.73;;;;;;;28.89;45.27;101145.51;128436;1084;64134;-85
2021/07/25 09:01:19;;;;;;;6.23;3.67;;;;;;;28.89;45.38;101150.09;128397;1084;64172;-85
2021/07/25 09:03:57;;;;;;;;;;;;;;;28.88;45.42;101149.26;128457;1084;64176;-85
2021/07/25 09:06:23;;;;;;;5.10;4.00;;;;;;;28.87;45.36;101136.67;128414;1084;64176;-84
2021/07/25 09:08:53;;;;;;;6.20;3.40;;;;;;;28.87;45.26;101128.52;128417;1084;64162;-85
2021/07/25 09:11:30;;;;;;;4.67;3.40;;;;;;;28.88;45.29;101129.36;128375;1084;64131;-85
2021/07/25 09:13:59;;;;;;;5.37;3.80;;;;;;;28.87;45.58;101133.95;128374;1084;64208;-85
2021/07/25 09:16:37;;;;;;;4.77;3.73;;;;;;;28.88;45.31;101129.36;128398;1084;64147;-85
2021/07/25 09:19:06;;;;;;;4.80;3.50;;;;;;;28.87;45.42;101125.80;128391;1084;64292;-85
2021/07/25 09:22:08;;;;;;;4.67;3.50;;;;;;;28.88;45.56;101126.64;128427;1083;64182;-84
2021/07/25 09:24:52;;;;;;;4.80;3.53;;;;;;;28.88;45.57;101121.21;128340;1087;64146;-85
2021/07/25 09:27:41;;;;;;;4.87;3.60;;;;;;;28.86;45.68;101110.50;127985;1087;64128;-84
2021/07/25 09:30:18;;;;;;;5.40;3.55;;;;;;;28.88;45.58;101123.92;128025;1087;64422;-84
2021/07/25 09:32:45;;;;;;;5.13;3.50;;;;;;;28.87;45.74;101116.81;128415;1087;64145;-84
2021/07/25 09:35:50;;;;;;;5.03;3.60;;;;;;;28.87;45.67;101114.94;128004;1087;63949;-86
2021/07/25 09:38:28;;;;;;;4.10;3.37;;;;;;;28.87;45.88;101112.22;128002;1087;64748;-85
2021/07/25 09:41:06;;;;;;;5.90;3.30;;;;;;;28.87;45.46;101112.22;128013;1087;64272;-85
2021/07/25 09:43:33;;;;;;;4.63;3.40;;;;;;;28.88;45.32;101110.34;128049;1087;64114;-85
2021/07/25 09:46:05;;;;;;;5.53;3.67;;;;;;;28.87;45.69;101117.66;128008;1087;64165;-85
2021/07/25 09:48:42;;;;;;;5.93;3.90;;;;;;;28.88;45.46;101118.50;128360;1087;64144;-85
2021/07/25 09:51:21;;;;;;;4.70;3.50;;;;;;;28.87;45.41;101128.52;128341;1087;64157;-85
2021/07/25 09:53:51;;;;;;;4.43;3.53;;;;;;;28.88;45.76;101121.21;128385;1087;64584;-85
2021/07/25 09:56:23;;;;;;;5.03;3.67;;;;;;;28.88;45.59;101121.21;128036;1087;64096;-85
2021/07/25 09:59:03;;;;;;;5.47;3.60;;;;;;;28.88;45.33;101119.37;128387;1084;64115;-84
2021/07/25 10:01:55;;;;;;;4.30;3.35;;;;;;;28.87;45.63;101106.78;128427;1084;64150;-85
2021/07/25 10:04:23;;;;;;;4.63;3.17;;;;;;;28.86;45.79;101105.06;128430;1082;64097;-85
2021/07/25 10:07:17;;;;;;;5.10;3.33;;;;;;;28.87;45.49;101117.66;128397;1084;64092;-85
2021/07/25 10:09:42;;;;;;;4.70;3.40;;;;;;;28.86;45.52;101107.78;128380;1084;64144;-84
2021/07/25 10:12:21;;;;;;;6.10;3.50;;;;;;;28.87;45.74;101105.94;128397;1084;64092;-84
2021/07/25 10:14:58;;;;;;;4.33;3.23;;;;;;;28.87;45.43;101101.35;128425;1082;64655;-84
2021/07/25 10:17:31;;;;;;;4.43;3.20;;;;;;;28.87;45.33;101105.94;128411;1084;64125;-85
2021/07/25 10:20:04;;;;;;;5.90;3.63;;;;;;;28.87;45.39;101105.94;128411;1084;64093;-85
2021/07/25 10:22:34;;;;;;;4.90;3.23;;;;;;;28.87;45.51;101103.23;128445;1084;64134;-85
2021/07/25 10:25:02;;;;;;;4.27;3.37;;;;;;;28.87;45.37;101105.94;128406;1084;64211;-85
2021/07/25 10:27:29;;;;;;;4.70;3.30;;;;;;;28.86;45.47;101096.08;128443;1083;61889;-85
2021/07/25 10:29:58;;;;;;;5.40;3.45;;;;;;;28.86;45.36;101099.63;128403;1084;64226;-85
2021/07/25 10:32:27;;;;;;;3.83;2.90;;;;;;;28.87;45.51;101095.08;128429;1083;64153;-85
2021/07/25 10:34:56;;;;;;;3.83;2.80;;;;;;;28.87;45.74;101092.36;128486;1084;62921;-85
2021/07/25 10:37:22;;;;;;;4.83;3.20;;;;;;;28.87;45.33;101085.05;128523;1082;64089;-85
2021/07/25 10:39:50;;;;;;;5.50;3.43;;;;;;;28.86;45.27;101083.33;128554;1084;64790;-85
2021/07/25 10:42:27;;;;;;;5.20;3.47;;;;;;;28.88;45.42;101081.33;128493;1084;63935;-84
2021/07/25 10:44:57;;;;;;;4.70;3.20;;;;;;;28.88;45.57;101089.48;128455;1084;64207;-85
2021/07/25 10:47:36;;;;;;;4.40;3.30;;;;;;;28.87;45.43;101085.05;128400;1084;64156;-85
2021/07/25 10:50:07;;;;;;;4.77;3.17;;;;;;;28.87;45.21;101076.89;128435;1083;64121;-86
2021/07/25 10:53:06;;;;;;;4.47;3.27;;;;;;;28.87;45.31;101066.03;128429;1082;64182;-85
2021/07/25 10:55:53;;;;;;;4.87;3.30;;;;;;;28.87;45.27;101074.17;128349;1087;64160;-84
2021/07/25 10:58:27;;;;;;;4.77;3.27;;;;;;;28.87;45.07;101074.17;127909;1090;64163;-84
2021/07/25 11:00:55;;;;;;;4.70;3.23;;;;;;;28.88;45.00;101077.73;127881;1090;64291;-85
2021/07/25 11:03:43;;;;;;;5.23;3.43;;;;;;;28.86;45.31;101072.47;127899;1090;64297;-85
2021/07/25 11:06:22;;;;;;;4.35;3.30;;;;;;;28.87;44.94;101074.17;127894;1088;64277;-85
2021/07/25 11:08:58;;;;;;;5.23;3.20;;;;;;;28.86;45.28;101069.75;127792;1090;64166;-85
2021/07/25 11:11:55;;;;;;;4.73;3.50;;;;;;;28.86;45.36;101068.91;127775;1090;64217;-85
2021/07/25 11:15:07;;;;;;;4.90;3.60;;;;;;;28.85;45.13;101073.47;127729;1093;64686;-85
2021/07/25 11:17:51;;;;;;;4.07;2.80;;;;;;;28.85;45.04;101067.19;127729;1093;63920;-85
2021/07/25 11:20:58;;;;;;;5.23;3.37;;;;;;;28.85;44.94;101061.76;127709;1093;64147;-85
2021/07/25 11:23:34;;;;;;;4.20;3.30;;;;;;;28.85;45.14;101059.88;127297;1093;64402;-85
2021/07/25 11:26:33;;;;;;;5.40;3.40;;;;;;;28.84;45.18;101058.20;127289;1093;64152;-85
2021/07/25 11:29:09;;;;;;;5.67;3.63;;;;;;;28.84;45.02;101050.05;127332;1093;64278;-85
2021/07/25 11:31:43;;;;;;;6.60;3.50;;;;;;;28.85;44.98;101050.89;127454;1093;64175;-85
2021/07/25 11:34:33;;;;;;;4.43;3.20;;;;;;;28.85;44.99;101051.73;127638;1093;64178;-85
2021/07/25 11:37:04;;;;;;;4.93;3.20;;;;;;;28.84;44.80;101058.20;127646;1093;63920;-85
2021/07/25 11:39:51;;;;;;;4.50;3.30;;;;;;;28.84;45.09;101052.77;127750;1092;64067;-85
2021/07/25 11:42:29;;;;;;;4.33;3.30;;;;;;;28.85;44.72;101054.45;127668;1093;64288;-84
2021/07/25 11:45:04;;;;;;;5.93;3.40;;;;;;;28.85;44.79;101045.45;127702;1093;64297;-84
2021/07/25 11:47:33;;;;;;;4.40;3.13;;;;;;;28.85;44.59;101048.17;127706;1093;64291;-85
2021/07/25 11:50:38;;;;;;;4.38;3.30;;;;;;;28.84;44.72;101041.89;127709;1093;64190;-85
2021/07/25 11:53:05;;;;;;;5.40;3.40;;;;;;;28.84;44.53;101032.88;127817;1088;64146;-85
2021/07/25 11:55:35;;;;;;;4.20;3.13;;;;;;;28.84;44.94;101031.03;127916;1090;65439;-84
2021/07/25 11:58:14;;;;;;;4.00;3.00;;;;;;;28.85;44.98;101029.15;127922;1090;64165;-84
2021/07/25 12:00:41;;;;;;;4.57;3.23;;;;;;;28.85;44.93;101037.30;127982;1086;65043;-85
2021/07/25 12:03:26;;;;;;;4.50;3.27;;;;;;;28.85;44.28;101040.02;128011;1087;64137;-85
2021/07/25 12:06:18;;;;;;;3.97;3.10;;;;;;;28.84;44.68;101022.88;127967;1085;64139;-85
2021/07/25 12:09:04;;;;;;;4.30;3.30;;;;;;;28.84;44.65;101030.16;128224;1087;64317;-85